createdAt,value
2022-11-08T00:01:51.000Z,11.06
2022-11-08T00:04:22.232Z,11.08
2022-11-08T00:07:08.293Z,11.00
2022-11-08T00:09:54.756Z,10.90
2022-11-08T00:12:41.367Z,10.78
2022-11-08T00:15:11.487Z,10.74
2022-11-08T00:17:40.108Z,10.59
2022-11-08T00:20:12.645Z,10.44
2022-11-08T00:22:40.797Z,10.61
2022-11-08T00:25:09.655Z,10.44
2022-11-08T00:27:39.742Z,10.32
2022-11-08T00:30:09.038Z,10.34
2022-11-08T00:32:37.454Z,10.82
2022-11-08T00:35:07.491Z,10.81
2022-11-08T00:37:37.404Z,10.69
2022-11-08T00:40:06.264Z,10.45
2022-11-08T00:42:34.702Z,10.17
2022-11-08T00:45:03.550Z,9.94
2022-11-08T00:47:32.319Z,9.90
2022-11-08T00:50:00.694Z,9.64
2022-11-08T00:52:29.285Z,9.70
2022-11-08T00:54:58.806Z,9.59
2022-11-08T00:57:41.100Z,9.44
2022-11-08T01:00:16.156Z,9.34
2022-11-08T01:02:44.803Z,9.42
2022-11-08T01:05:13.195Z,9.62
2022-11-08T01:07:41.715Z,9.65
2022-11-08T01:10:13.377Z,9.76
2022-11-08T01:12:41.867Z,9.54
2022-11-08T01:15:10.608Z,9.47
2022-11-08T01:17:38.969Z,9.46
2022-11-08T01:20:08.920Z,9.49
2022-11-08T01:22:38.280Z,9.49
2022-11-08T01:25:07.170Z,9.62
2022-11-08T01:27:36.829Z,9.63
2022-11-08T01:30:06.146Z,9.51
2022-11-08T01:32:35.470Z,9.48
2022-11-08T01:35:03.881Z,9.40
2022-11-08T01:37:32.254Z,9.28
2022-11-08T01:40:00.773Z,9.06
2022-11-08T01:42:29.652Z,9.02
2022-11-08T01:45:01.431Z,9.01
2022-11-08T01:47:30.392Z,9.02
2022-11-08T01:50:00.379Z,8.84
2022-11-08T01:52:33.556Z,9.06
2022-11-08T01:55:07.978Z,9.13
2022-11-08T01:57:43.757Z,9.24
2022-11-08T02:00:38.911Z,9.33
2022-11-08T02:03:11.558Z,9.10
2022-11-08T02:05:41.063Z,9.11
2022-11-08T02:08:17.434Z,8.74
2022-11-08T02:10:49.377Z,9.05
2022-11-08T02:13:21.340Z,9.32
2022-11-08T02:15:51.034Z,9.16
2022-11-08T02:18:22.446Z,9.17
2022-11-08T02:21:01.938Z,8.83
2022-11-08T02:23:33.599Z,8.86
2022-11-08T02:26:03.470Z,9.08
2022-11-08T02:28:31.646Z,9.04
2022-11-08T02:30:59.812Z,9.12
2022-11-08T02:33:28.030Z,8.92
2022-11-08T02:35:57.661Z,9.19
2022-11-08T02:38:27.234Z,9.21
2022-11-08T02:40:57.404Z,8.93
2022-11-08T02:43:27.449Z,8.57
2022-11-08T02:45:55.709Z,8.61
2022-11-08T02:48:24.029Z,8.64
2022-11-08T02:50:52.794Z,8.78
2022-11-08T02:53:21.378Z,8.89
2022-11-08T02:55:49.884Z,9.08
2022-11-08T02:58:18.513Z,9.12
2022-11-08T03:00:48.396Z,9.06
2022-11-08T03:03:16.830Z,8.91
2022-11-08T03:05:47.615Z,8.73
2022-11-08T03:08:16.491Z,8.73
2022-11-08T03:10:45.088Z,8.65
2022-11-08T03:13:13.312Z,8.60
2022-11-08T03:15:41.806Z,8.62
2022-11-08T03:18:11.584Z,8.55
2022-11-08T03:20:39.694Z,8.70
2022-11-08T03:23:08.344Z,8.92
2022-11-08T03:25:36.651Z,8.97
2022-11-08T03:28:06.704Z,8.94
2022-11-08T03:30:35.485Z,8.74
2022-11-08T03:33:04.372Z,8.84
2022-11-08T03:35:34.171Z,8.67
2022-11-08T03:38:02.504Z,8.80
2022-11-08T03:40:30.687Z,8.90
2022-11-08T03:42:58.949Z,9.00
2022-11-08T03:45:27.436Z,8.80
2022-11-08T03:47:55.681Z,8.93
2022-11-08T03:50:23.894Z,8.74
2022-11-08T03:52:55.541Z,8.55
2022-11-08T03:55:26.477Z,8.66
2022-11-08T03:57:55.061Z,8.89
2022-11-08T04:00:25.739Z,9.33
2022-11-08T04:02:55.168Z,9.68
2022-11-08T04:05:24.040Z,9.81
2022-11-08T04:07:53.697Z,9.89
2022-11-08T04:10:22.084Z,9.78
2022-11-08T04:13:07.863Z,9.73
2022-11-08T04:15:36.246Z,9.66
2022-11-08T04:18:21.914Z,9.24
2022-11-08T04:21:13.702Z,9.21
2022-11-08T04:23:43.407Z,8.90
2022-11-08T04:26:12.751Z,9.00
2022-11-08T04:28:42.670Z,8.99
2022-11-08T04:31:13.528Z,8.92
2022-11-08T04:33:42.494Z,9.07
2022-11-08T04:36:13.088Z,9.13
2022-11-08T04:38:43.003Z,9.39
2022-11-08T04:41:12.843Z,9.62
2022-11-08T04:43:41.443Z,9.50
2022-11-08T04:46:11.454Z,9.83
2022-11-08T04:48:39.920Z,10.06
2022-11-08T04:51:11.069Z,10.11
2022-11-08T04:53:39.645Z,10.04
2022-11-08T04:56:11.101Z,10.23
2022-11-08T04:58:41.248Z,10.42
2022-11-08T05:01:11.585Z,10.40
2022-11-08T05:03:39.936Z,10.61
2022-11-08T05:06:11.499Z,10.38
2022-11-08T05:08:40.440Z,10.11
2022-11-08T05:11:11.504Z,9.93
2022-11-08T05:13:40.133Z,9.92
2022-11-08T05:16:11.577Z,10.15
2022-11-08T05:18:42.034Z,9.90
2022-11-08T05:21:44.387Z,9.94
2022-11-08T05:24:15.356Z,9.95
2022-11-08T05:26:47.651Z,9.72
2022-11-08T05:29:16.896Z,9.58
2022-11-08T05:31:45.122Z,9.82
2022-11-08T05:34:13.749Z,10.21
2022-11-08T05:36:42.014Z,10.57
2022-11-08T05:39:10.350Z,10.41
2022-11-08T05:41:38.548Z,10.00
2022-11-08T05:44:08.284Z,10.06
2022-11-08T05:46:36.823Z,9.79
2022-11-08T05:49:05.113Z,10.00
2022-11-08T05:51:33.673Z,9.75
2022-11-08T05:54:01.903Z,9.94
2022-11-08T05:56:30.093Z,9.95
2022-11-08T05:58:58.500Z,9.91
2022-11-08T06:01:28.154Z,9.85
2022-11-08T06:03:56.444Z,9.79
2022-11-08T06:06:24.717Z,9.72
2022-11-08T06:08:54.478Z,9.68
2022-11-08T06:11:25.532Z,10.00
2022-11-08T06:13:55.702Z,10.32
2022-11-08T06:16:25.499Z,10.35
2022-11-08T06:18:55.127Z,10.43
2022-11-08T06:21:23.797Z,10.44
2022-11-08T06:23:54.541Z,10.43
2022-11-08T06:26:23.336Z,10.43
2022-11-08T06:28:51.846Z,10.47
2022-11-08T06:31:20.013Z,10.65
2022-11-08T06:33:48.401Z,10.59
2022-11-08T06:36:18.003Z,9.92
2022-11-08T06:38:46.225Z,9.93
2022-11-08T06:41:19.611Z,9.80
2022-11-08T06:43:49.178Z,9.87
2022-11-08T06:46:18.473Z,9.92
2022-11-08T06:48:46.780Z,10.09
2022-11-08T06:51:15.504Z,10.50
2022-11-08T06:53:45.375Z,10.83
2022-11-08T06:56:13.804Z,11.28
2022-11-08T06:58:42.111Z,12.27
2022-11-08T07:01:13.667Z,12.28
2022-11-08T07:03:41.978Z,11.84
2022-11-08T07:06:10.541Z,13.39
2022-11-08T07:08:38.919Z,17.64
2022-11-08T07:11:09.355Z,20.14
2022-11-08T07:13:37.746Z,23.53
2022-11-08T07:16:06.445Z,22.98
2022-11-08T07:18:35.230Z,25.54
2022-11-08T07:21:04.375Z,24.87
2022-11-08T07:23:32.849Z,21.12
2022-11-08T07:26:05.421Z,18.77
2022-11-08T07:28:35.111Z,18.31
2022-11-08T07:31:05.967Z,19.26
2022-11-08T07:33:34.344Z,21.08
2022-11-08T07:36:03.300Z,20.86
2022-11-08T07:38:31.740Z,18.87
2022-11-08T07:41:00.766Z,16.56
2022-11-08T07:43:30.397Z,15.10
2022-11-08T07:46:10.570Z,17.65
2022-11-08T07:48:38.705Z,18.56
2022-11-08T07:51:07.838Z,18.75
2022-11-08T07:53:58.019Z,19.33
2022-11-08T07:56:53.763Z,23.49
2022-11-08T07:59:23.015Z,24.97
2022-11-08T08:02:13.243Z,26.27
2022-11-08T08:05:02.399Z,26.86
2022-11-08T08:07:36.407Z,22.44
2022-11-08T08:10:31.033Z,22.57
2022-11-08T08:13:22.246Z,22.00
2022-11-08T08:16:11.554Z,22.04
2022-11-08T08:19:16.184Z,22.66
2022-11-08T08:21:45.512Z,20.26
2022-11-08T08:24:32.197Z,20.02
2022-11-08T08:27:30.629Z,21.39
2022-11-08T08:30:07.402Z,23.78
2022-11-08T08:33:26.725Z,26.45
2022-11-08T08:35:55.621Z,25.41
2022-11-08T08:38:49.942Z,25.11
2022-11-08T08:41:18.303Z,26.63
2022-11-08T08:43:51.440Z,26.26
2022-11-08T08:46:24.205Z,22.37
2022-11-08T08:49:10.878Z,22.36
2022-11-08T08:51:42.356Z,21.85
2022-11-08T08:54:31.830Z,22.45
2022-11-08T08:57:03.055Z,21.64
2022-11-08T09:02:44.455Z,23.57
2022-11-08T09:05:19.631Z,22.83
2022-11-08T09:07:49.247Z,22.73
2022-11-08T09:10:36.321Z,22.00
2022-11-08T09:13:04.845Z,22.22
2022-11-08T09:15:34.194Z,21.02
2022-11-08T09:18:02.566Z,20.67
2022-11-08T09:20:30.792Z,20.30
2022-11-08T09:23:03.766Z,19.09
2022-11-08T09:25:32.556Z,19.84
2022-11-08T09:28:00.688Z,19.47
2022-11-08T09:30:29.139Z,19.75
2022-11-08T09:33:02.136Z,21.15
2022-11-08T09:35:31.288Z,20.61
2022-11-08T09:38:00.065Z,19.91
2022-11-08T09:40:38.486Z,19.48
2022-11-08T09:43:19.942Z,18.17
2022-11-08T09:45:52.586Z,18.65
2022-11-08T09:48:26.134Z,18.04
2022-11-08T09:50:56.745Z,18.22
2022-11-08T09:53:34.887Z,18.58
2022-11-08T09:56:11.725Z,18.64
2022-11-08T09:58:47.277Z,18.55
2022-11-08T10:01:16.420Z,18.36
2022-11-08T10:03:48.948Z,18.42
2022-11-08T10:06:50.361Z,18.05
2022-11-08T10:09:34.104Z,18.22
2022-11-08T10:12:18.870Z,17.40
2022-11-08T10:15:03.969Z,17.50
2022-11-08T10:18:28.906Z,19.33
2022-11-08T10:21:06.583Z,18.74
2022-11-08T10:23:44.052Z,17.64
2022-11-08T10:26:18.043Z,17.97
2022-11-08T10:28:55.229Z,18.32
2022-11-08T10:31:23.550Z,18.30
2022-11-08T10:33:54.156Z,18.40
2022-11-08T10:36:27.887Z,19.80
2022-11-08T10:39:04.086Z,20.18
2022-11-08T10:41:40.914Z,18.95
2022-11-08T10:44:17.284Z,19.29
2022-11-08T10:46:49.115Z,18.79
2022-11-08T10:49:21.386Z,19.40
2022-11-08T10:51:51.401Z,19.53
2022-11-08T10:54:44.985Z,18.69
2022-11-08T10:57:15.333Z,19.23
2022-11-08T10:59:45.759Z,20.53
2022-11-08T11:02:21.365Z,20.27
2022-11-08T11:04:50.441Z,19.54
2022-11-08T11:07:34.233Z,19.48
2022-11-08T11:10:24.007Z,19.40
2022-11-08T11:13:02.509Z,19.35
2022-11-08T11:15:40.396Z,19.02
2022-11-08T11:18:23.162Z,19.62
2022-11-08T11:21:13.426Z,19.56
2022-11-08T11:23:44.754Z,19.55
2022-11-08T11:26:28.796Z,19.59
2022-11-08T11:29:17.089Z,19.65
2022-11-08T11:31:48.455Z,19.21
2022-11-08T11:34:43.854Z,19.01
2022-11-08T11:37:37.672Z,18.35
2022-11-08T11:40:17.521Z,17.81
2022-11-08T11:42:55.731Z,17.41
2022-11-08T11:45:30.897Z,18.06
2022-11-08T11:48:04.704Z,18.37
2022-11-08T11:50:36.015Z,17.96
2022-11-08T11:53:07.416Z,17.55
2022-11-08T11:55:50.846Z,17.19
2022-11-08T11:58:35.358Z,17.36
2022-11-08T12:01:15.721Z,17.80
2022-11-08T12:04:01.137Z,17.95
2022-11-08T12:06:39.676Z,17.77
2022-11-08T12:09:26.028Z,17.34
2022-11-08T12:12:12.158Z,17.15
2022-11-08T12:14:55.211Z,16.72
2022-11-08T12:17:48.164Z,16.63
2022-11-08T12:20:35.738Z,16.57
2022-11-08T12:23:29.635Z,16.24
2022-11-08T12:26:03.119Z,16.61
2022-11-08T12:28:46.046Z,17.54
2022-11-08T12:31:26.501Z,17.06
2022-11-08T12:34:08.915Z,17.03
2022-11-08T12:36:48.672Z,16.99
2022-11-08T12:39:27.733Z,17.06
2022-11-08T12:42:07.890Z,16.55
2022-11-08T12:45:02.434Z,16.25
2022-11-08T12:47:36.715Z,16.40
2022-11-08T12:50:21.700Z,16.57
2022-11-08T12:53:07.918Z,16.73
2022-11-08T12:55:38.488Z,17.35
2022-11-08T12:58:19.745Z,17.13
2022-11-08T13:00:52.396Z,16.54
2022-11-08T13:03:40.201Z,17.25
2022-11-08T13:06:13.588Z,16.73
2022-11-08T13:08:52.141Z,16.18
2022-11-08T13:11:26.026Z,15.79
2022-11-08T13:13:57.250Z,16.44
2022-11-08T13:16:27.306Z,15.97
2022-11-08T13:18:57.805Z,15.51
2022-11-08T13:21:38.038Z,15.94
2022-11-08T13:24:45.329Z,15.82
2022-11-08T13:27:34.130Z,16.30
2022-11-08T13:30:26.530Z,15.64
2022-11-08T13:33:00.603Z,15.77
2022-11-08T13:35:36.496Z,15.84
2022-11-08T13:38:18.593Z,15.90
2022-11-08T13:41:11.865Z,16.21
2022-11-08T13:43:40.455Z,16.04
2022-11-08T13:46:45.606Z,15.61
2022-11-08T13:49:19.291Z,15.29
2022-11-08T13:51:47.964Z,15.16
2022-11-08T13:54:50.621Z,15.24
2022-11-08T13:57:21.989Z,15.03
2022-11-08T13:59:59.593Z,15.01
2022-11-08T14:02:45.895Z,14.96
2022-11-08T14:05:29.719Z,14.97
2022-11-08T14:08:15.034Z,15.00
2022-11-08T14:11:18.910Z,15.25
2022-11-08T14:14:06.845Z,15.03
2022-11-08T14:16:44.970Z,15.00
2022-11-08T14:19:22.369Z,15.33
2022-11-08T14:21:52.911Z,15.05
2022-11-08T14:24:25.581Z,14.91
2022-11-08T14:26:54.134Z,15.07
2022-11-08T14:29:25.594Z,14.69
2022-11-08T14:32:05.391Z,14.40
2022-11-08T14:34:36.434Z,14.30
2022-11-08T14:37:06.078Z,15.01
2022-11-08T14:39:35.835Z,13.79
2022-11-08T14:42:06.976Z,14.62
2022-11-08T14:44:36.642Z,14.87
2022-11-08T14:47:05.534Z,15.23
2022-11-08T14:49:35.945Z,15.30
2022-11-08T14:52:13.333Z,14.18
2022-11-08T14:54:44.431Z,14.12
2022-11-08T14:57:33.246Z,14.17
2022-11-08T15:00:06.890Z,13.94
2022-11-08T15:02:35.299Z,14.91
2022-11-08T15:05:05.677Z,14.21
2022-11-08T15:07:34.840Z,14.71
2022-11-08T15:10:11.006Z,13.95
2022-11-08T15:12:43.108Z,13.73
2022-11-08T15:15:25.315Z,13.69
2022-11-08T15:18:15.663Z,13.76
2022-11-08T15:20:55.739Z,13.73
2022-11-08T15:23:36.994Z,13.73
2022-11-08T15:26:05.378Z,13.95
2022-11-08T15:28:35.412Z,13.61
2022-11-08T15:31:06.231Z,13.67
2022-11-08T15:33:37.777Z,13.64
2022-11-08T15:36:13.468Z,13.61
2022-11-08T15:38:43.669Z,13.48
2022-11-08T15:41:33.018Z,13.24
2022-11-08T15:44:15.025Z,13.41
2022-11-08T15:46:44.766Z,13.27
2022-11-08T15:49:19.221Z,13.58
2022-11-08T15:51:48.143Z,13.62
2022-11-08T15:54:16.728Z,13.58
2022-11-08T15:56:46.335Z,13.49
2022-11-08T15:59:21.100Z,13.56
2022-11-08T16:01:54.923Z,13.44
2022-11-08T16:04:23.573Z,12.89
2022-11-08T16:06:51.988Z,12.99
2022-11-08T16:09:20.710Z,13.27
2022-11-08T16:11:49.596Z,13.39
2022-11-08T16:14:21.203Z,13.48
2022-11-08T16:16:50.060Z,13.36
2022-11-08T16:19:21.866Z,13.99
2022-11-08T16:21:50.914Z,13.57
2022-11-08T16:24:19.421Z,13.69
2022-11-08T16:26:49.802Z,13.60
2022-11-08T16:29:21.386Z,13.19
2022-11-08T16:31:50.057Z,13.64
2022-11-08T16:34:19.980Z,13.48
2022-11-08T16:36:50.212Z,13.70
2022-11-08T16:39:20.093Z,13.92
2022-11-08T16:41:48.479Z,13.76
2022-11-08T16:44:17.049Z,13.37
2022-11-08T16:46:45.904Z,13.49
2022-11-08T16:49:23.090Z,13.19
2022-11-08T16:51:51.624Z,13.46
2022-11-08T16:54:21.308Z,13.64
2022-11-08T16:56:49.597Z,13.69
2022-11-08T16:59:18.000Z,13.31
2022-11-08T17:01:46.860Z,13.34
2022-11-08T17:04:15.048Z,13.61
2022-11-08T17:06:44.712Z,13.75
2022-11-08T17:09:13.143Z,13.69
2022-11-08T17:11:42.223Z,13.63
2022-11-08T17:14:12.121Z,13.51
2022-11-08T17:16:40.421Z,13.76
2022-11-08T17:19:08.615Z,13.67
2022-11-08T17:21:45.754Z,13.82
2022-11-08T17:24:21.317Z,13.96
2022-11-08T17:26:50.291Z,13.49
2022-11-08T17:29:18.588Z,13.49
2022-11-08T17:31:47.186Z,14.00
2022-11-08T17:34:15.685Z,13.60
2022-11-08T17:36:44.249Z,13.47
2022-11-08T17:39:14.164Z,13.79
2022-11-08T17:41:43.843Z,13.95
2022-11-08T17:44:12.209Z,13.86
2022-11-08T17:46:40.703Z,13.83
2022-11-08T17:49:10.013Z,13.76
2022-11-08T17:51:38.279Z,13.90
2022-11-08T17:54:06.607Z,13.98
2022-11-08T17:56:35.030Z,13.67
2022-11-08T17:59:05.974Z,13.87
2022-11-08T18:01:34.398Z,13.79
2022-11-08T18:04:03.665Z,13.62
2022-11-08T18:06:32.146Z,13.76
2022-11-08T18:09:00.573Z,13.52
2022-11-08T18:11:29.081Z,13.70
2022-11-08T18:13:57.459Z,13.67
2022-11-08T18:16:27.169Z,13.97
2022-11-08T18:18:55.960Z,13.83
2022-11-08T18:21:24.446Z,13.82
2022-11-08T18:23:53.135Z,13.66
2022-11-08T18:26:21.705Z,13.81
2022-11-08T18:28:49.997Z,13.75
2022-11-08T18:31:20.717Z,13.90
2022-11-08T18:33:50.729Z,14.00
2022-11-08T18:36:21.483Z,13.92
2022-11-08T18:38:51.529Z,13.35
2022-11-08T18:41:22.239Z,13.40
2022-11-08T18:43:50.798Z,13.39
2022-11-08T18:46:21.081Z,13.32
2022-11-08T18:48:51.132Z,13.16
2022-11-08T18:51:21.590Z,13.12
2022-11-08T18:53:52.477Z,12.98
2022-11-08T18:56:21.586Z,13.06
2022-11-08T18:58:51.030Z,13.23
2022-11-08T19:01:19.853Z,13.29
2022-11-08T19:03:48.470Z,13.31
2022-11-08T19:06:19.421Z,13.28
2022-11-08T19:08:47.846Z,12.94
2022-11-08T19:11:20.555Z,13.36
2022-11-08T19:13:49.594Z,13.17
2022-11-08T19:16:20.400Z,13.42
2022-11-08T19:18:49.747Z,13.24
2022-11-08T19:21:21.646Z,12.96
2022-11-08T19:23:51.000Z,13.07
2022-11-08T19:26:22.138Z,13.48
2022-11-08T19:28:54.478Z,12.98
2022-11-08T19:31:24.635Z,13.12
2022-11-08T19:33:54.427Z,12.93
2022-11-08T19:36:25.528Z,13.19
2022-11-08T19:38:55.058Z,13.28
2022-11-08T19:41:25.715Z,13.34
2022-11-08T19:43:55.094Z,13.03
2022-11-08T19:46:24.838Z,13.02
2022-11-08T19:48:54.095Z,12.61
2022-11-08T19:51:27.434Z,12.14
2022-11-08T19:53:59.847Z,12.37
2022-11-08T19:56:57.658Z,12.89
2022-11-08T19:59:26.933Z,12.36
2022-11-08T20:01:58.586Z,12.25
2022-11-08T20:04:30.110Z,11.64
2022-11-08T20:07:03.115Z,12.11
2022-11-08T20:09:35.921Z,12.33
2022-11-08T20:12:05.804Z,12.64
2022-11-08T20:14:34.181Z,12.52
2022-11-08T20:17:02.525Z,12.86
2022-11-08T20:19:31.083Z,12.73
2022-11-08T20:22:01.384Z,12.82
2022-11-08T20:24:29.635Z,12.66
2022-11-08T20:26:58.348Z,12.14
2022-11-08T20:29:26.923Z,12.41
2022-11-08T20:31:56.548Z,11.86
2022-11-08T20:34:25.777Z,12.28
2022-11-08T20:36:54.212Z,12.16
2022-11-08T20:39:24.759Z,11.83
2022-11-08T20:41:52.996Z,12.11
2022-11-08T20:44:22.775Z,12.10
2022-11-08T20:46:51.200Z,12.19
2022-11-08T20:49:19.475Z,12.30
2022-11-08T20:51:48.029Z,12.01
2022-11-08T20:54:16.731Z,12.03
2022-11-08T20:56:46.947Z,12.06
2022-11-08T20:59:15.727Z,12.03
2022-11-08T21:01:44.049Z,11.43
2022-11-08T21:04:12.396Z,11.80
2022-11-08T21:06:41.107Z,11.63
2022-11-08T21:09:34.318Z,11.45
2022-11-08T21:11:59.948Z,11.68
2022-11-08T21:14:28.224Z,11.93
2022-11-08T21:17:20.953Z,11.43
2022-11-08T21:19:45.370Z,12.10
2022-11-08T21:22:16.596Z,11.56
2022-11-08T21:24:47.168Z,11.76
2022-11-08T21:27:17.982Z,11.73
2022-11-08T21:29:46.718Z,11.98
2022-11-08T21:32:15.253Z,11.56
2022-11-08T21:34:46.296Z,11.90
2022-11-08T21:37:15.800Z,12.02
2022-11-08T21:39:44.309Z,12.30
2022-11-08T21:42:14.041Z,12.38
2022-11-08T21:44:44.294Z,11.97
2022-11-08T21:47:12.800Z,12.13
2022-11-08T21:49:41.917Z,11.86
2022-11-08T21:52:10.922Z,12.16
2022-11-08T21:54:40.561Z,12.22
2022-11-08T21:57:09.046Z,12.42
2022-11-08T21:59:37.314Z,11.74
2022-11-08T22:02:07.528Z,11.91
2022-11-08T22:04:35.966Z,11.97
2022-11-08T22:07:04.639Z,11.94
2022-11-08T22:09:32.902Z,12.09
2022-11-08T22:12:01.200Z,12.21
2022-11-08T22:14:30.054Z,12.40
2022-11-08T22:17:01.411Z,12.21
2022-11-08T22:19:32.463Z,12.08
2022-11-08T22:22:00.863Z,11.75
2022-11-08T22:24:29.685Z,11.74
2022-11-08T22:26:58.271Z,11.78
2022-11-08T22:29:30.797Z,11.37
2022-11-08T22:31:59.572Z,10.93
2022-11-08T22:34:29.089Z,10.40
2022-11-08T22:36:59.001Z,10.38
2022-11-08T22:39:27.119Z,9.33
2022-11-08T22:41:56.129Z,9.67
2022-11-08T22:44:24.406Z,10.06
2022-11-08T22:46:52.673Z,9.45
2022-11-08T22:49:21.796Z,9.81
2022-11-08T22:51:50.334Z,9.98
2022-11-08T22:54:20.059Z,9.79
2022-11-08T22:56:48.355Z,10.28
2022-11-08T22:59:16.726Z,10.79
2022-11-08T23:01:44.931Z,11.01
2022-11-08T23:04:12.996Z,10.85
2022-11-08T23:06:41.570Z,10.62
2022-11-08T23:09:10.378Z,10.60
2022-11-08T23:11:57.367Z,9.76
2022-11-08T23:14:43.360Z,10.61
2022-11-08T23:17:11.747Z,10.19
2022-11-08T23:19:57.645Z,10.60
2022-11-08T23:22:43.223Z,10.19
2022-11-08T23:25:12.273Z,10.31
2022-11-08T23:27:59.585Z,10.11
2022-11-08T23:30:45.396Z,10.18
2022-11-08T23:33:13.610Z,10.33
2022-11-08T23:36:01.911Z,10.00
2022-11-08T23:38:30.312Z,9.88
2022-11-08T23:41:17.651Z,10.52
2022-11-08T23:44:04.725Z,9.85
2022-11-08T23:46:33.092Z,10.00
2022-11-08T23:49:02.037Z,10.51
2022-11-08T23:51:30.384Z,10.19
2022-11-08T23:53:58.635Z,10.64
2022-11-08T23:56:28.497Z,10.22
2022-11-08T23:59:00.620Z,10.29
